Time;durP1;ratioP1;P1;durP2;ratioP2;P2;SDS_P1;SDS_P2;PMS_P1;PMS_P2;Temp;Humidity;BMP_temperature;BMP_pressure;BME280_temperature;BME280_humidity;BME280_pressure;Samples;Min_cycle;Max_cycle;Signal;HPM_P1;HPM_P2
2021/12/19 00:00:21;;;;;;;0.08;0.00;;;7.40;99.90;;;;;;5072397;28;20036;-82
2021/12/19 00:03:18;;;;;;;0.20;0.00;;;7.40;99.90;;;;;;5076104;28;20420;-82
2021/12/19 00:11:15;;;;;;;0.20;0.20;;;7.40;99.90;;;;;;5038101;28;20409;-82
2021/12/19 00:13:41;;;;;;;0.00;0.00;;;7.40;99.90;;;;;;5038393;28;20432;-82
2021/12/19 00:16:07;;;;;;;0.43;0.10;;;7.40;99.90;;;;;;5037970;28;20057;-82
2021/12/19 00:18:34;;;;;;;0.10;0.10;;;7.40;99.90;;;;;;5037871;28;20554;-82
2021/12/19 00:20:59;;;;;;;0.52;0.52;;;7.40;99.90;;;;;;5038319;28;20075;-82
2021/12/19 00:23:26;;;;;;;0.25;0.25;;;7.40;99.90;;;;;;5021331;28;20061;-82
2021/12/19 00:25:52;;;;;;;0.30;0.30;;;7.40;99.90;;;;;;5038518;28;20531;-82
2021/12/19 00:28:18;;;;;;;0.00;0.00;;;7.40;99.90;;;;;;5038678;28;20053;-82
2021/12/19 00:30:44;;;;;;;0.00;0.00;;;7.40;99.90;;;;;;5037945;28;20598;-82
2021/12/19 00:33:09;;;;;;;0.03;0.03;;;7.40;99.90;;;;;;5038043;28;20049;-82
2021/12/19 00:35:35;;;;;;;0.00;0.00;;;7.40;99.90;;;;;;5038113;28;20463;-82
2021/12/19 00:38:01;;;;;;;0.00;0.00;;;7.40;99.90;;;;;;5038525;28;20080;-82
2021/12/19 00:40:27;;;;;;;0.00;0.00;;;7.40;99.90;;;;;;5020653;28;20477;-82
2021/12/19 00:43:02;;;;;;;0.00;0.00;;;7.40;99.90;;;;;;5038415;28;20057;-82
2021/12/19 00:45:32;;;;;;;0.00;0.00;;;7.40;99.90;;;;;;5038592;28;20127;-82
2021/12/19 00:47:59;;;;;;;0.00;0.00;;;7.40;99.90;;;;;;5032015;28;20071;-82
2021/12/19 00:50:26;;;;;;;0.28;0.00;;;7.40;99.90;;;;;;5076137;28;20044;-82
2021/12/19 00:52:53;;;;;;;0.35;0.35;;;7.40;99.90;;;;;;5059293;28;20045;-82
2021/12/19 00:55:20;;;;;;;0.08;0.08;;;7.40;99.90;;;;;;5075875;28;20041;-82
2021/12/19 00:57:47;;;;;;;0.05;0.05;;;7.50;99.90;;;;;;5058950;28;20569;-83
2021/12/19 01:00:16;;;;;;;0.00;0.00;;;7.50;99.90;;;;;;5075661;28;20040;-82
2021/12/19 01:02:42;;;;;;;0.00;0.00;;;7.50;99.90;;;;;;5059078;28;20051;-82
2021/12/19 01:05:09;;;;;;;0.00;0.00;;;7.40;99.90;;;;;;5075661;28;20041;-82
2021/12/19 01:07:35;;;;;;;0.00;0.00;;;7.50;99.90;;;;;;5059126;28;20052;-82
2021/12/19 01:10:00;;;;;;;0.05;0.00;;;7.50;99.90;;;;;;5058863;28;20178;-82
2021/12/19 01:12:26;;;;;;;0.00;0.00;;;7.50;99.90;;;;;;5075391;28;20064;-82
2021/12/19 01:14:53;;;;;;;0.00;0.00;;;7.50;99.90;;;;;;5058880;28;20041;-82
2021/12/19 01:17:19;;;;;;;0.00;0.00;;;7.50;99.90;;;;;;5076132;28;20434;-82
2021/12/19 01:19:47;;;;;;;0.00;0.00;;;7.50;99.90;;;;;;5058632;28;20056;-82
2021/12/19 01:22:13;;;;;;;0.00;0.00;;;7.50;99.90;;;;;;5074899;28;20542;-82
2021/12/19 01:24:39;;;;;;;0.00;0.00;;;7.50;99.90;;;;;;5075380;28;20048;-82
2021/12/19 01:27:08;;;;;;;0.00;0.00;;;7.50;99.90;;;;;;5058359;28;20084;-82
2021/12/19 01:29:33;;;;;;;0.00;0.00;;;7.50;99.90;;;;;;5074643;28;20097;-82
2021/12/19 01:32:00;;;;;;;0.00;0.00;;;7.50;99.90;;;;;;5074252;28;20048;-82
2021/12/19 01:34:26;;;;;;;0.00;0.00;;;7.50;99.90;;;;;;5074952;28;20081;-82
2021/12/19 01:36:52;;;;;;;0.10;0.10;;;7.50;99.90;;;;;;5057821;28;20051;-82
2021/12/19 01:39:18;;;;;;;0.45;0.45;;;7.50;99.90;;;;;;5057760;28;20048;-82
2021/12/19 01:41:52;;;;;;;0.00;0.00;;;7.60;99.90;;;;;;5058054;28;20397;-82
2021/12/19 01:44:19;;;;;;;1.95;0.30;;;7.40;99.90;;;;;;5058683;28;20048;-82
2021/12/19 01:46:46;;;;;;;3.30;0.65;;;7.50;99.90;;;;;;5057957;28;20507;-82
2021/12/19 01:49:17;;;;;;;0.25;0.20;;;7.50;99.90;;;;;;5057897;28;20102;-82
2021/12/19 01:51:44;;;;;;;0.00;0.00;;;7.50;99.90;;;;;;5057600;28;20051;-82
2021/12/19 01:54:10;;;;;;;0.00;0.00;;;7.50;99.90;;;;;;5074358;28;20392;-82
2021/12/19 01:56:36;;;;;;;0.05;0.05;;;7.50;99.90;;;;;;5074740;28;20044;-82
2021/12/19 01:59:02;;;;;;;0.00;0.00;;;7.50;99.90;;;;;;5057447;28;20049;-82
2021/12/19 02:01:28;;;;;;;0.00;0.00;;;7.50;99.90;;;;;;5057779;28;20147;-82
2021/12/19 02:03:54;;;;;;;0.00;0.00;;;7.50;99.90;;;;;;5074080;28;20063;-82
2021/12/19 02:06:19;;;;;;;0.08;0.08;;;7.50;99.90;;;;;;5073840;28;20476;-82
2021/12/19 02:08:48;;;;;;;0.00;0.00;;;7.60;99.90;;;;;;5073900;28;20060;-82
2021/12/19 02:11:15;;;;;;;0.13;0.13;;;7.60;99.90;;;;;;5073752;28;20048;-82
2021/12/19 02:13:41;;;;;;;0.00;0.00;;;7.50;99.90;;;;;;5057628;28;20046;-82
2021/12/19 02:16:06;;;;;;;0.00;0.00;;;7.50;99.90;;;;;;5058198;28;20048;-82
2021/12/19 02:18:32;;;;;;;0.38;0.10;;;7.50;99.90;;;;;;5057746;28;20098;-82
2021/12/19 02:20:59;;;;;;;0.00;0.00;;;7.50;99.90;;;;;;5074274;28;20043;-82
2021/12/19 02:23:28;;;;;;;0.00;0.00;;;7.50;99.90;;;;;;5073391;28;20407;-82
2021/12/19 02:25:55;;;;;;;0.00;0.00;;;7.50;99.90;;;;;;5073164;28;20127;-82
2021/12/19 02:28:21;;;;;;;0.15;0.15;;;7.50;99.90;;;;;;5057029;28;20079;-82
2021/12/19 02:30:47;;;;;;;1.20;0.13;;;7.40;99.90;;;;;;5057433;28;20113;-82
2021/12/19 02:33:18;;;;;;;0.00;0.00;;;7.50;99.90;;;;;;5073896;28;20040;-82
2021/12/19 02:35:52;;;;;;;0.98;0.05;;;7.50;99.90;;;;;;5057592;28;20472;-82
2021/12/19 02:49:30;;;;;;;0.00;0.00;;;7.40;99.90;;;;;;5036030;28;20049;-82
2021/12/19 02:51:56;;;;;;;0.00;0.00;;;7.40;99.90;;;;;;5019718;28;20052;-82
2021/12/19 02:54:23;;;;;;;0.00;0.00;;;7.40;99.90;;;;;;5018989;28;20107;-82
2021/12/19 02:56:50;;;;;;;0.00;0.00;;;7.40;99.90;;;;;;5020049;28;20057;-82
2021/12/19 02:59:16;;;;;;;0.00;0.00;;;7.40;99.90;;;;;;5035886;28;20420;-83
2021/12/19 03:01:44;;;;;;;0.00;0.00;;;7.40;99.90;;;;;;5019548;28;20048;-82
2021/12/19 03:04:11;;;;;;;0.00;0.00;;;7.40;99.90;;;;;;5019202;28;20101;-82
2021/12/19 03:06:48;;;;;;;0.00;0.00;;;7.40;99.90;;;;;;5019350;28;20041;-82
2021/12/19 03:09:28;;;;;;;0.00;0.00;;;7.40;99.90;;;;;;5019529;28;20049;-82
2021/12/19 03:12:10;;;;;;;0.00;0.00;;;7.40;99.90;;;;;;5019483;28;20061;-82
2021/12/19 03:20:08;;;;;;;0.00;0.00;;;7.40;99.90;;;;;;5073887;28;20052;-83
2021/12/19 03:22:33;;;;;;;0.00;0.00;;;7.30;99.90;;;;;;5056632;28;20049;-82
2021/12/19 03:24:59;;;;;;;0.00;0.00;;;7.30;99.90;;;;;;5072427;28;20408;-82
2021/12/19 03:27:24;;;;;;;0.00;0.00;;;7.30;99.90;;;;;;5056371;28;20147;-83
2021/12/19 03:29:50;;;;;;;0.00;0.00;;;7.30;99.90;;;;;;5072806;28;20049;-82
2021/12/19 03:32:16;;;;;;;0.00;0.00;;;7.30;99.90;;;;;;5072528;28;20059;-81
2021/12/19 03:34:41;;;;;;;0.00;0.00;;;7.20;99.90;;;;;;5073100;28;20055;-82
2021/12/19 03:37:07;;;;;;;0.00;0.00;;;7.30;99.90;;;;;;5075488;28;20040;-82
2021/12/19 03:39:38;;;;;;;0.88;0.00;;;7.30;99.90;;;;;;5077029;28;20396;-82
2021/12/19 03:42:05;;;;;;;0.00;0.00;;;7.30;99.90;;;;;;5061050;28;20052;-81
2021/12/19 03:44:30;;;;;;;0.00;0.00;;;7.20;99.90;;;;;;5060707;28;20439;-82
2021/12/19 03:46:56;;;;;;;0.00;0.00;;;7.30;99.90;;;;;;5077495;28;20063;-82
2021/12/19 03:49:22;;;;;;;0.00;0.00;;;7.30;99.90;;;;;;5060116;28;20143;-82
2021/12/19 03:51:48;;;;;;;0.00;0.00;;;7.30;99.90;;;;;;5076776;28;20607;-82
2021/12/19 03:54:15;;;;;;;0.00;0.00;;;7.30;99.90;;;;;;5076629;28;20075;-82
2021/12/19 03:56:40;;;;;;;0.13;0.13;;;7.30;99.90;;;;;;5060193;28;20079;-83
2021/12/19 03:59:06;;;;;;;0.22;0.22;;;7.20;99.90;;;;;;5075863;28;20076;-82
2021/12/19 04:01:32;;;;;;;0.00;0.00;;;7.20;99.90;;;;;;5060454;28;20052;-82
2021/12/19 04:03:58;;;;;;;0.00;0.00;;;7.30;99.90;;;;;;5077195;28;20561;-82
2021/12/19 04:06:25;;;;;;;0.00;0.00;;;7.20;99.90;;;;;;5060404;28;20080;-82
2021/12/19 04:08:51;;;;;;;0.00;0.00;;;7.20;99.90;;;;;;5076548;28;20542;-82
2021/12/19 04:11:16;;;;;;;0.00;0.00;;;7.20;99.90;;;;;;5059754;28;20120;-82
2021/12/19 04:13:42;;;;;;;0.00;0.00;;;7.20;99.90;;;;;;5059902;28;20050;-83
2021/12/19 04:16:08;;;;;;;0.00;0.00;;;7.20;99.90;;;;;;5076300;28;20040;-83
2021/12/19 04:18:33;;;;;;;0.00;0.00;;;7.20;99.90;;;;;;5059670;28;20078;-83
2021/12/19 04:20:59;;;;;;;0.00;0.00;;;7.20;99.90;;;;;;5059327;28;20048;-82
2021/12/19 04:23:26;;;;;;;0.00;0.00;;;7.20;99.90;;;;;;5059073;28;20118;-83
2021/12/19 04:25:52;;;;;;;0.00;0.00;;;7.20;99.90;;;;;;5075699;28;20083;-83
2021/12/19 04:28:18;;;;;;;0.00;0.00;;;7.20;99.90;;;;;;5075714;28;20036;-83
2021/12/19 04:30:44;;;;;;;0.00;0.00;;;7.30;99.90;;;;;;5075832;28;20040;-83
2021/12/19 04:33:12;;;;;;;0.00;0.00;;;7.20;99.90;;;;;;5075946;28;20044;-82
2021/12/19 04:35:41;;;;;;;0.00;0.00;;;7.20;99.90;;;;;;5059094;28;20040;-82
2021/12/19 04:57:03;;;;;;;0.00;0.00;;;7.20;99.90;;;;;;5076240;28;20403;-83
2021/12/19 05:15:46;;;;;;;0.00;0.00;;;7.10;99.90;;;;;;5037802;28;20060;-81
2021/12/19 05:18:12;;;;;;;0.00;0.00;;;7.10;99.90;;;;;;5037291;28;20287;-81
2021/12/19 05:20:40;;;;;;;0.00;0.00;;;7.30;99.90;;;;;;5037895;28;20052;-81
2021/12/19 05:23:22;;;;;;;0.00;0.00;;;7.10;99.90;;;;;;5037243;28;20532;-81
2021/12/19 05:25:48;;;;;;;0.00;0.00;;;7.10;99.90;;;;;;5020868;28;20041;-81
2021/12/19 05:28:13;;;;;;;0.00;0.00;;;7.00;99.90;;;;;;5020730;28;20053;-81
2021/12/19 05:30:39;;;;;;;0.00;0.00;;;7.00;99.90;;;;;;5037775;28;20052;-81
2021/12/19 05:33:06;;;;;;;0.00;0.00;;;7.00;99.90;;;;;;5038027;28;20045;-82
2021/12/19 05:45:11;;;;;;;0.00;0.00;;;7.00;99.90;;;;;;4920802;29;20102;-81
2021/12/19 05:46:57;;;;;;;0.43;0.00;;;7.00;99.90;;;;;;4919966;29;20075;-82
2021/12/19 05:49:23;;;;;;;0.00;0.00;;;6.90;99.90;;;;;;4920623;29;20295;-81
2021/12/19 05:51:49;;;;;;;0.00;0.00;;;6.90;99.90;;;;;;4920781;29;20060;-81
2021/12/19 05:54:15;;;;;;;0.00;0.00;;;6.90;99.90;;;;;;4920955;29;20047;-81
2021/12/19 05:56:42;;;;;;;0.00;0.00;;;6.90;99.90;;;;;;4920948;29;20125;-81
2021/12/19 05:59:08;;;;;;;0.00;0.00;;;6.90;99.90;;;;;;4920057;29;20098;-81
2021/12/19 06:01:35;;;;;;;0.00;0.00;;;6.90;99.90;;;;;;4920193;29;20063;-81
2021/12/19 06:04:01;;;;;;;0.00;0.00;;;6.90;99.90;;;;;;4905255;29;20060;-81
2021/12/19 06:06:27;;;;;;;0.00;0.00;;;6.90;99.90;;;;;;4904669;29;20057;-81
2021/12/19 06:08:53;;;;;;;0.00;0.00;;;6.90;99.90;;;;;;4921112;29;20146;-81
2021/12/19 06:11:19;;;;;;;0.00;0.00;;;6.90;99.90;;;;;;4920673;29;20138;-81
2021/12/19 06:13:45;;;;;;;0.05;0.00;;;7.00;99.90;;;;;;4921375;29;20134;-81
2021/12/19 06:16:11;;;;;;;0.00;0.00;;;6.90;99.90;;;;;;4971582;28;20055;-81
2021/12/19 06:18:36;;;;;;;0.00;0.00;;;6.90;99.90;;;;;;5074799;28;20391;-81
2021/12/19 06:21:04;;;;;;;0.00;0.00;;;7.00;99.90;;;;;;5075383;28;20041;-81
2021/12/19 06:23:30;;;;;;;0.00;0.00;;;7.00;99.90;;;;;;5074760;28;20055;-81
2021/12/19 06:25:55;;;;;;;0.00;0.00;;;7.00;99.90;;;;;;5074446;28;20049;-81
2021/12/19 06:28:22;;;;;;;0.00;0.00;;;7.00;99.90;;;;;;5074800;28;20041;-81
2021/12/19 06:30:48;;;;;;;0.00;0.00;;;7.00;99.90;;;;;;5074462;28;20045;-81
2021/12/19 06:33:14;;;;;;;0.00;0.00;;;7.00;99.90;;;;;;5057837;28;20040;-81
2021/12/19 06:35:40;;;;;;;0.00;0.00;;;7.00;99.90;;;;;;5057733;28;20061;-81
2021/12/19 06:38:06;;;;;;;0.40;0.20;;;7.00;99.90;;;;;;5074783;28;20059;-81
2021/12/19 06:40:33;;;;;;;0.00;0.00;;;7.00;99.90;;;;;;5057720;28;20052;-81
2021/12/19 06:42:59;;;;;;;0.20;0.00;;;6.90;99.90;;;;;;5074042;28;20480;-81
2021/12/19 06:45:25;;;;;;;0.00;0.00;;;6.90;99.90;;;;;;5057378;28;20032;-81
2021/12/19 06:47:52;;;;;;;2.10;0.52;;;7.00;99.90;;;;;;5056766;28;20393;-81
2021/12/19 06:50:18;;;;;;;0.00;0.00;;;7.00;99.90;;;;;;5057342;28;20083;-81
2021/12/19 06:52:46;;;;;;;0.00;0.00;;;7.00;99.90;;;;;;5057394;28;20045;-81
2021/12/19 06:55:13;;;;;;;0.00;0.00;;;7.00;99.90;;;;;;5074406;28;20400;-81
2021/12/19 06:57:39;;;;;;;0.00;0.00;;;7.00;99.90;;;;;;5074002;28;20052;-81
2021/12/19 07:00:15;;;;;;;0.30;0.05;;;7.00;99.90;;;;;;5074263;28;20032;-81
2021/12/19 07:02:41;;;;;;;0.00;0.00;;;7.00;99.90;;;;;;5074362;28;20392;-81
2021/12/19 07:05:07;;;;;;;1.00;0.47;;;7.00;99.90;;;;;;5073571;28;20047;-81
2021/12/19 07:07:33;;;;;;;0.00;0.00;;;7.10;99.90;;;;;;5056962;28;20092;-81
2021/12/19 07:09:59;;;;;;;0.30;0.30;;;7.10;99.90;;;;;;5073506;28;20102;-81
2021/12/19 07:12:27;;;;;;;0.00;0.00;;;7.10;99.90;;;;;;5073230;28;20048;-81
2021/12/19 07:14:54;;;;;;;0.00;0.00;;;7.00;99.90;;;;;;5056453;28;20040;-81
2021/12/19 07:17:19;;;;;;;0.00;0.00;;;7.00;99.90;;;;;;5057220;28;20189;-81
2021/12/19 07:19:45;;;;;;;0.00;0.00;;;7.10;99.90;;;;;;5073857;28;20090;-81
2021/12/19 07:22:11;;;;;;;0.10;0.03;;;7.20;99.90;;;;;;5054040;28;20041;-81
2021/12/19 07:24:37;;;;;;;0.00;0.00;;;7.10;99.90;;;;;;5036620;28;20075;-82
2021/12/19 07:27:02;;;;;;;0.00;0.00;;;7.10;99.90;;;;;;5036374;28;20527;-81
2021/12/19 07:29:28;;;;;;;0.13;0.13;;;7.10;99.90;;;;;;5036324;28;20041;-81
2021/12/19 07:31:54;;;;;;;0.40;0.05;;;7.10;99.90;;;;;;5037378;28;20049;-81
2021/12/19 07:34:22;;;;;;;0.10;0.10;;;7.10;99.90;;;;;;5036717;28;20477;-82
2021/12/19 07:36:52;;;;;;;0.98;0.45;;;7.10;99.90;;;;;;5036202;28;20102;-81
2021/12/19 07:39:26;;;;;;;0.00;0.00;;;7.20;99.90;;;;;;5036466;28;20041;-81
2021/12/19 07:41:52;;;;;;;0.20;0.20;;;7.10;99.90;;;;;;5052734;28;20164;-81
2021/12/19 07:44:18;;;;;;;2.60;0.35;;;7.10;99.90;;;;;;5036324;28;20045;-81
2021/12/19 07:46:44;;;;;;;0.00;0.00;;;7.20;99.90;;;;;;5035980;28;20083;-81
2021/12/19 07:49:11;;;;;;;1.27;0.52;;;7.10;99.90;;;;;;5052341;28;20052;-81
2021/12/19 07:51:36;;;;;;;0.15;0.15;;;7.10;99.90;;;;;;5053996;28;20434;-81
2021/12/19 07:54:02;;;;;;;0.00;0.00;;;7.10;99.90;;;;;;5053580;28;20044;-81
2021/12/19 07:56:28;;;;;;;1.65;0.38;;;7.20;99.90;;;;;;5037000;28;20048;-81
2021/12/19 07:58:54;;;;;;;0.00;0.00;;;7.10;99.90;;;;;;5036308;28;20049;-81
2021/12/19 08:01:19;;;;;;;2.55;0.77;;;7.10;99.90;;;;;;5052679;28;20074;-81
2021/12/19 08:03:45;;;;;;;0.00;0.00;;;7.20;99.90;;;;;;5052863;28;20048;-81
2021/12/19 08:06:11;;;;;;;0.00;0.00;;;7.20;99.90;;;;;;5035666;28;20377;-81
2021/12/19 08:08:36;;;;;;;0.25;0.22;;;7.20;99.90;;;;;;5035914;28;20091;-82
2021/12/19 08:13:47;;;;;;;0.00;0.00;;;7.10;99.90;;;;;;5052963;28;20056;-82
2021/12/19 08:16:13;;;;;;;0.10;0.05;;;7.20;99.90;;;;;;5045895;28;20033;-84
2021/12/19 08:18:39;;;;;;;0.00;0.00;;;7.20;99.90;;;;;;5061655;28;20393;-84
2021/12/19 08:21:04;;;;;;;0.00;0.00;;;7.20;99.90;;;;;;5045821;28;20053;-84
2021/12/19 08:23:30;;;;;;;0.00;0.00;;;7.20;99.90;;;;;;5049972;28;20045;-87
2021/12/19 08:25:56;;;;;;;2.90;0.25;;;7.20;99.90;;;;;;5075547;28;20179;-84
2021/12/19 08:28:22;;;;;;;0.32;0.00;;;7.20;99.90;;;;;;5047818;28;20091;-86
2021/12/19 08:30:48;;;;;;;0.10;0.10;;;7.20;99.90;;;;;;5041670;28;20093;-84
2021/12/19 08:33:14;;;;;;;0.00;0.00;;;7.40;99.90;;;;;;5060831;28;20062;-84
2021/12/19 08:35:39;;;;;;;0.40;0.20;;;7.30;99.90;;;;;;5048460;28;20052;-84
2021/12/19 08:38:05;;;;;;;0.17;0.17;;;7.20;99.90;;;;;;5048748;28;20318;-86
2021/12/19 08:40:32;;;;;;;0.95;0.30;;;7.20;99.90;;;;;;5045948;28;20441;-84
2021/12/19 08:42:58;;;;;;;0.30;0.20;;;7.50;99.90;;;;;;5062805;28;20491;-85
2021/12/19 08:45:24;;;;;;;0.00;0.00;;;7.30;99.90;;;;;;5048361;28;20461;-83
2021/12/19 08:47:50;;;;;;;0.00;0.00;;;7.30;99.90;;;;;;5043802;28;20053;-84
2021/12/19 08:50:16;;;;;;;0.00;0.00;;;7.30;99.90;;;;;;5050412;28;20137;-86
2021/12/19 08:52:42;;;;;;;0.00;0.00;;;7.30;99.90;;;;;;5050073;28;20036;-85
2021/12/19 08:55:10;;;;;;;0.00;0.00;;;7.30;99.90;;;;;;5065445;28;20040;-85
2021/12/19 08:57:36;;;;;;;0.00;0.00;;;7.30;99.90;;;;;;5066761;28;20051;-85
2021/12/19 09:00:07;;;;;;;0.00;0.00;;;7.30;99.90;;;;;;5047975;28;20044;-82
2021/12/19 09:02:33;;;;;;;0.00;0.00;;;7.40;99.90;;;;;;5045969;28;20431;-81
2021/12/19 09:04:59;;;;;;;0.00;0.00;;;7.40;99.90;;;;;;5059042;28;20039;-81
2021/12/19 09:07:24;;;;;;;0.00;0.00;;;7.30;99.90;;;;;;5075900;28;20041;-81
2021/12/19 09:09:50;;;;;;;0.00;0.00;;;7.30;99.90;;;;;;5075826;28;20094;-81
2021/12/19 09:12:16;;;;;;;0.00;0.00;;;7.40;99.90;;;;;;5075908;28;20050;-81
2021/12/19 09:14:43;;;;;;;0.00;0.00;;;7.40;99.90;;;;;;5059029;28;20083;-81
2021/12/19 09:17:08;;;;;;;0.00;0.00;;;7.40;99.90;;;;;;5075442;28;20047;-81
2021/12/19 09:19:34;;;;;;;0.00;0.00;;;7.40;99.90;;;;;;5058998;28;20041;-81
2021/12/19 09:22:00;;;;;;;0.00;0.00;;;7.40;99.90;;;;;;5075391;28;20123;-82
2021/12/19 09:24:25;;;;;;;0.20;0.20;;;7.40;99.90;;;;;;5059150;28;20045;-82
2021/12/19 09:26:51;;;;;;;0.00;0.00;;;7.40;99.90;;;;;;5075210;28;20048;-81
2021/12/19 09:29:17;;;;;;;0.00;0.00;;;7.40;99.90;;;;;;5075432;28;20044;-81
2021/12/19 09:31:42;;;;;;;0.00;0.00;;;7.50;99.90;;;;;;5075727;28;20132;-81
2021/12/19 09:34:08;;;;;;;0.25;0.25;;;7.50;99.90;;;;;;5057769;28;20127;-81
2021/12/19 09:36:34;;;;;;;0.00;0.00;;;7.50;99.90;;;;;;5075792;28;20117;-81
2021/12/19 09:39:01;;;;;;;0.00;0.00;;;7.50;99.90;;;;;;5075386;28;20048;-82
2021/12/19 09:41:32;;;;;;;0.65;0.10;;;7.50;99.90;;;;;;5058648;28;20059;-82
2021/12/19 09:44:04;;;;;;;0.00;0.00;;;7.60;99.90;;;;;;5058610;28;20056;-82
2021/12/19 09:46:34;;;;;;;0.15;0.15;;;7.50;99.90;;;;;;5074555;28;20488;-82
2021/12/19 09:49:00;;;;;;;0.00;0.00;;;7.60;99.90;;;;;;5074115;28;20053;-82
2021/12/19 09:51:26;;;;;;;0.00;0.00;;;7.60;99.90;;;;;;5058410;28;20045;-82
2021/12/19 09:53:52;;;;;;;0.00;0.00;;;7.60;99.90;;;;;;5074541;28;20056;-82
2021/12/19 09:56:17;;;;;;;0.00;0.00;;;7.50;99.90;;;;;;5057491;28;20400;-82
2021/12/19 09:58:43;;;;;;;0.70;0.00;;;7.60;99.90;;;;;;5057829;28;20052;-83
2021/12/19 10:01:11;;;;;;;0.00;0.00;;;7.60;99.90;;;;;;5054510;28;20473;-83
2021/12/19 10:03:38;;;;;;;0.70;0.40;;;7.60;99.90;;;;;;5074051;28;20040;-83
2021/12/19 10:06:25;;;;;;;1.23;0.40;;;7.60;99.90;;;;;;5057215;28;20040;-82
2021/12/19 10:09:07;;;;;;;1.20;0.28;;;7.60;99.90;;;;;;5058028;28;20040;-83
2021/12/19 10:14:34;;;;;;;0.00;0.00;;;7.60;99.90;;;;;;5036430;28;20049;-82
2021/12/19 10:17:02;;;;;;;0.00;0.00;;;7.70;99.90;;;;;;5037209;28;20128;-82
2021/12/19 10:19:48;;;;;;;0.00;0.00;;;7.70;99.90;;;;;;5036541;28;20056;-83
2021/12/19 10:22:23;;;;;;;;;;;7.70;99.90;;;;;;5037300;28;20052;-82
2021/12/19 10:24:48;;;;;;;0.20;0.00;;;7.80;99.90;;;;;;5036706;28;19924;-82
2021/12/19 10:27:34;;;;;;;0.00;0.00;;;7.80;99.90;;;;;;5020125;28;20087;-82
2021/12/19 10:30:00;;;;;;;0.08;0.08;;;7.80;99.90;;;;;;5036920;28;20136;-81
2021/12/19 10:32:26;;;;;;;0.20;0.20;;;7.80;99.90;;;;;;5019705;28;20100;-82
2021/12/19 10:35:13;;;;;;;10.25;0.28;;;7.80;99.90;;;;;;5036023;28;20065;-82
2021/12/19 10:37:39;;;;;;;0.00;0.00;;;7.80;99.90;;;;;;5019437;28;20095;-82
2021/12/19 10:40:05;;;;;;;0.00;0.00;;;7.80;99.90;;;;;;5020542;28;20049;-82
2021/12/19 10:42:35;;;;;;;1.45;0.63;;;7.80;99.90;;;;;;5020434;28;20407;-82
2021/12/19 10:47:45;;;;;;;0.00;0.00;;;7.80;99.90;;;;;;5036138;28;20056;-82
2021/12/19 10:50:11;;;;;;;0.28;0.28;;;7.80;99.90;;;;;;5025258;28;20053;-82
2021/12/19 10:52:38;;;;;;;0.00;0.00;;;7.80;99.90;;;;;;5074154;28;20080;-82
2021/12/19 10:55:10;;;;;;;0.00;0.00;;;7.80;99.90;;;;;;5074016;28;20041;-82
2021/12/19 10:57:38;;;;;;;0.00;0.00;;;7.80;99.90;;;;;;5057667;28;20201;-82
2021/12/19 11:00:08;;;;;;;0.00;0.00;;;7.80;99.90;;;;;;5057153;28;20101;-82
2021/12/19 11:02:36;;;;;;;0.00;0.00;;;7.80;99.90;;;;;;5074791;28;20442;-82
2021/12/19 11:05:03;;;;;;;0.05;0.05;;;7.90;99.90;;;;;;5056943;28;20097;-82
2021/12/19 11:07:29;;;;;;;0.00;0.00;;;7.90;99.90;;;;;;5074354;28;20055;-82
2021/12/19 11:09:54;;;;;;;0.00;0.00;;;7.90;99.90;;;;;;5073696;28;20044;-81
2021/12/19 11:12:20;;;;;;;0.00;0.00;;;7.90;99.90;;;;;;5073833;28;20135;-82
2021/12/19 11:14:51;;;;;;;0.50;0.20;;;7.90;99.90;;;;;;5055906;28;20484;-82
2021/12/19 11:17:28;;;;;;;0.00;0.00;;;7.90;99.90;;;;;;5056127;28;20044;-81
2021/12/19 11:19:57;;;;;;;0.00;0.00;;;7.90;99.90;;;;;;5068883;28;20104;-82
2021/12/19 11:22:28;;;;;;;0.08;0.00;;;7.90;99.90;;;;;;5054081;28;20040;-84
2021/12/19 11:24:59;;;;;;;0.00;0.00;;;7.90;99.90;;;;;;5054027;28;20052;-83
2021/12/19 11:27:26;;;;;;;0.10;0.00;;;7.90;99.90;;;;;;5071186;28;20044;-81
2021/12/19 11:29:53;;;;;;;0.00;0.00;;;8.00;99.90;;;;;;5070660;28;20041;-82
2021/12/19 11:32:22;;;;;;;0.05;0.05;;;8.00;99.90;;;;;;5070620;28;20048;-82
2021/12/19 11:35:25;;;;;;;0.00;0.00;;;7.90;99.90;;;;;;5072854;28;20051;-81
2021/12/19 11:37:59;;;;;;;0.32;0.32;;;7.90;99.90;;;;;;4999319;28;20164;-82
2021/12/19 11:40:30;;;;;;;1.75;0.32;;;8.00;99.90;;;;;;5015460;28;20049;-81
2021/12/19 11:43:04;;;;;;;0.00;0.00;;;7.90;99.90;;;;;;5016055;28;20053;-81
2021/12/19 11:45:35;;;;;;;0.10;0.10;;;7.90;99.90;;;;;;5015823;28;20148;-81
2021/12/19 11:48:35;;;;;;;0.22;0.10;;;7.90;99.90;;;;;;5016572;28;20556;-82
2021/12/19 11:51:04;;;;;;;2.17;0.03;;;7.90;99.90;;;;;;5015842;28;20107;-82
2021/12/19 11:53:33;;;;;;;0.00;0.00;;;7.90;99.90;;;;;;5015617;28;20057;-83
2021/12/19 11:56:06;;;;;;;0.15;0.15;;;8.00;99.90;;;;;;5016037;28;20049;-83
2021/12/19 11:58:39;;;;;;;0.00;0.00;;;8.00;99.90;;;;;;5018573;28;20143;-83
2021/12/19 12:01:10;;;;;;;0.10;0.10;;;8.00;99.90;;;;;;5019727;28;20045;-82
2021/12/19 12:03:43;;;;;;;2.45;0.00;;;8.00;99.90;;;;;;5020124;28;20132;-83
2021/12/19 12:06:09;;;;;;;0.00;0.00;;;8.00;99.90;;;;;;5018238;28;20056;-82
2021/12/19 12:08:35;;;;;;;0.00;0.00;;;8.10;99.90;;;;;;5019158;28;20413;-83
2021/12/19 12:11:01;;;;;;;0.03;0.00;;;8.00;99.90;;;;;;5010770;28;20143;-82
2021/12/19 12:13:28;;;;;;;0.00;0.00;;;8.10;99.90;;;;;;5060475;28;20045;-82
2021/12/19 12:16:04;;;;;;;0.00;0.00;;;8.10;99.90;;;;;;5060873;28;20106;-83
2021/12/19 12:18:30;;;;;;;1.40;0.13;;;8.00;99.90;;;;;;5076878;28;20428;-82
2021/12/19 12:20:57;;;;;;;0.47;0.00;;;8.00;99.90;;;;;;5076828;28;20496;-82
2021/12/19 12:23:27;;;;;;;0.20;0.20;;;8.00;99.90;;;;;;5076428;28;20056;-82
2021/12/19 12:25:54;;;;;;;0.00;0.00;;;8.00;99.90;;;;;;5059564;28;20047;-82
2021/12/19 12:28:20;;;;;;;0.10;0.00;;;8.00;99.90;;;;;;5060301;28;20480;-82
2021/12/19 12:30:50;;;;;;;0.00;0.00;;;8.00;99.90;;;;;;5077465;28;20048;-82
2021/12/19 12:33:19;;;;;;;0.20;0.17;;;7.90;99.90;;;;;;5076822;28;20510;-82
2021/12/19 12:35:47;;;;;;;0.60;0.28;;;7.90;99.90;;;;;;5076866;28;20056;-83
2021/12/19 12:38:13;;;;;;;0.00;0.00;;;7.90;99.90;;;;;;5059373;28;20480;-82
2021/12/19 12:43:26;;;;;;;0.52;0.28;;;7.90;99.90;;;;;;5076463;28;20056;-83
2021/12/19 12:46:01;;;;;;;0.00;0.00;;;7.90;99.90;;;;;;5059396;28;20519;-82
2021/12/19 12:48:39;;;;;;;0.10;0.10;;;7.90;99.90;;;;;;5060379;28;20519;-83
2021/12/19 12:51:27;;;;;;;0.00;0.00;;;8.00;99.90;;;;;;5077090;28;20478;-83
2021/12/19 12:53:56;;;;;;;0.10;0.05;;;8.00;99.90;;;;;;5019399;28;20529;-83
2021/12/19 12:56:31;;;;;;;0.00;0.00;;;8.00;99.90;;;;;;5019631;28;20049;-82
2021/12/19 12:58:58;;;;;;;1.10;0.65;;;8.00;99.90;;;;;;5019556;28;20176;-82
2021/12/19 13:01:38;;;;;;;1.05;0.98;;;8.00;99.90;;;;;;5018958;28;20211;-83
2021/12/19 13:04:13;;;;;;;0.77;0.25;;;8.00;99.90;;;;;;5018362;28;20052;-83
2021/12/19 13:06:55;;;;;;;0.00;0.00;;;8.00;99.90;;;;;;5017962;28;20505;-83
2021/12/19 13:09:35;;;;;;;0.00;0.00;;;8.00;99.90;;;;;;5017699;28;20196;-83
2021/12/19 13:12:10;;;;;;;0.00;0.00;;;8.00;99.90;;;;;;5017895;28;20401;-84
2021/12/19 13:14:48;;;;;;;0.13;0.00;;;8.00;99.90;;;;;;5017752;28;20098;-83
2021/12/19 13:17:24;;;;;;;0.00;0.00;;;8.10;99.90;;;;;;5017633;28;20056;-82
2021/12/19 13:20:02;;;;;;;0.03;0.03;;;8.10;99.90;;;;;;5018074;28;20106;-82
2021/12/19 13:22:32;;;;;;;0.00;0.00;;;8.10;99.90;;;;;;5018555;28;20056;-82
2021/12/19 13:25:19;;;;;;;2.28;0.80;;;8.00;99.90;;;;;;5018387;28;20100;-83
2021/12/19 13:27:47;;;;;;;0.00;0.00;;;8.00;99.90;;;;;;5018869;28;20389;-83
2021/12/19 13:30:27;;;;;;;0.20;0.20;;;8.00;99.90;;;;;;5026873;28;20091;-83
2021/12/19 13:32:56;;;;;;;0.10;0.10;;;8.00;99.90;;;;;;5059460;28;20092;-83
2021/12/19 13:35:27;;;;;;;0.00;0.00;;;8.10;99.90;;;;;;5059026;28;20480;-83
2021/12/19 13:37:55;;;;;;;1.55;0.10;;;8.00;99.90;;;;;;5075045;28;20048;-83
2021/12/19 13:40:23;;;;;;;0.00;0.00;;;8.00;99.90;;;;;;5058245;28;20422;-83
2021/12/19 13:42:50;;;;;;;0.00;0.00;;;8.00;99.90;;;;;;5058483;28;20078;-82
2021/12/19 13:45:30;;;;;;;4.85;2.08;;;8.00;99.90;;;;;;5075882;28;20045;-83
2021/12/19 13:47:58;;;;;;;0.00;0.00;;;8.00;99.90;;;;;;5074806;28;20103;-83
2021/12/19 13:50:25;;;;;;;0.10;0.03;;;8.00;99.90;;;;;;5058631;28;20055;-83
2021/12/19 13:52:51;;;;;;;0.00;0.00;;;8.00;99.90;;;;;;5058056;28;20049;-83
2021/12/19 13:55:17;;;;;;;0.00;0.00;;;8.00;99.90;;;;;;5059161;28;20067;-83
2021/12/19 13:57:45;;;;;;;0.00;0.00;;;8.00;99.90;;;;;;5076030;28;20385;-83
2021/12/19 14:00:32;;;;;;;0.00;0.00;;;7.90;99.90;;;;;;5074658;28;20044;-83
2021/12/19 14:02:58;;;;;;;0.00;0.00;;;7.90;99.90;;;;;;5075266;28;20071;-83
2021/12/19 14:05:45;;;;;;;0.45;0.30;;;8.00;99.90;;;;;;5074627;28;20036;-83
2021/12/19 14:08:21;;;;;;;0.00;0.00;;;8.00;99.90;;;;;;5074580;28;20065;-83
2021/12/19 14:11:00;;;;;;;0.00;0.00;;;8.00;99.90;;;;;;5057775;28;20048;-83
2021/12/19 14:13:34;;;;;;;0.00;0.00;;;8.00;99.90;;;;;;5057930;28;20060;-82
2021/12/19 14:16:04;;;;;;;0.10;0.10;;;8.00;99.90;;;;;;5075006;28;20087;-83
2021/12/19 14:18:37;;;;;;;0.00;0.00;;;8.00;99.90;;;;;;5058407;28;20083;-83
2021/12/19 14:21:04;;;;;;;0.52;0.52;;;8.00;99.90;;;;;;5073649;28;20055;-83